Time;durP1;ratioP1;P1;durP2;ratioP2;P2;SDS_P1;SDS_P2;PMS_P1;PMS_P2;Temp;Humidity;BMP_temperature;BMP_pressure;BME280_temperature;BME280_humidity;BME280_pressure;Samples;Min_cycle;Max_cycle;Signal;HPM_P1;HPM_P2
2024/03/31 00:00:09;;;;;;;10.95;1.95;;;;;;;18.54;39.20;98800.75;5051135;28;20025;-74
2024/03/31 00:02:35;;;;;;;9.80;2.03;;;;;;;18.47;39.63;98798.94;5050097;28;20443;-73
2024/03/31 00:05:01;;;;;;;12.23;1.90;;;;;;;18.47;39.58;98805.06;5033663;28;20666;-73
2024/03/31 00:07:26;;;;;;;12.85;2.58;;;;;;;18.44;39.64;98805.41;5049929;28;20032;-72
2024/03/31 00:09:52;;;;;;;11.50;2.17;;;;;;;18.41;39.37;98803.91;5050032;28;20377;-73
2024/03/31 00:12:17;;;;;;;10.73;1.75;;;;;;;18.41;39.50;98800.44;5035011;28;20037;-74
2024/03/31 00:14:44;;;;;;;8.45;1.77;;;;;;;18.31;39.29;98794.50;5037301;28;20043;-74
2024/03/31 00:17:09;;;;;;;5.85;2.08;;;;;;;18.35;39.55;98801.09;5054679;28;20025;-73
2024/03/31 00:19:35;;;;;;;6.88;1.73;;;;;;;18.33;39.62;98803.06;5037031;28;20029;-72
2024/03/31 00:22:00;;;;;;;11.63;1.92;;;;;;;18.25;39.69;98799.44;5036402;28;20048;-73
2024/03/31 00:24:26;;;;;;;11.88;2.22;;;;;;;18.23;39.58;98792.66;5037298;28;20474;-74
2024/03/31 00:26:52;;;;;;;9.27;2.30;;;;;;;18.25;39.56;98799.44;5037057;28;20032;-73
2024/03/31 00:29:18;;;;;;;6.63;1.40;;;;;;;18.22;39.68;98791.03;5036111;28;20116;-73
2024/03/31 00:31:44;;;;;;;8.60;1.52;;;;;;;18.16;39.79;98792.50;5054579;28;20029;-73
2024/03/31 00:34:09;;;;;;;6.07;1.55;;;;;;;18.17;39.50;98788.03;5036699;28;20044;-74
2024/03/31 00:36:35;;;;;;;13.80;2.50;;;;;;;18.16;39.66;98789.03;5019891;28;20032;-74
2024/03/31 00:39:00;;;;;;;6.60;1.40;;;;;;;18.13;39.77;98784.09;5053459;28;20029;-74
2024/03/31 00:41:26;;;;;;;10.63;2.15;;;;;;;18.07;39.52;98777.63;5053443;28;20029;-73
2024/03/31 00:43:51;;;;;;;9.93;1.60;;;;;;;18.12;39.60;98785.06;5036797;28;20119;-74
2024/03/31 00:46:17;;;;;;;10.70;1.92;;;;;;;18.04;39.55;98778.81;5053554;28;20082;-73
2024/03/31 00:48:42;;;;;;;14.80;1.90;;;;;;;18.05;39.52;98779.63;5035600;28;20079;-73
2024/03/31 00:51:08;;;;;;;8.10;1.83;;;;;;;18.02;39.65;98779.94;5019635;28;20033;-73
2024/03/31 00:53:33;;;;;;;6.70;1.77;;;;;;;18.03;39.71;98786.91;5036646;28;20052;-73
2024/03/31 00:55:58;;;;;;;9.98;2.03;;;;;;;18.01;39.82;98784.41;5036631;28;20045;-73
2024/03/31 00:58:24;;;;;;;9.18;2.20;;;;;;;17.96;39.89;98780.59;5019548;28;20033;-72
2024/03/31 01:00:49;;;;;;;9.88;1.98;;;;;;;17.99;39.60;98791.66;5036324;28;20029;-73
2024/03/31 01:03:28;;;;;;;8.32;1.77;;;;;;;17.96;39.93;98781.41;5036692;28;20037;-73
2024/03/31 01:05:53;;;;;;;;;;;;;;;17.97;39.84;98788.38;5069896;28;20033;-75
2024/03/31 01:08:19;;;;;;;9.45;1.90;;;;;;;17.94;39.92;98791.31;5069681;28;19963;-75
2024/03/31 01:10:44;;;;;;;9.75;1.73;;;;;;;17.91;39.93;98791.66;5069410;28;20044;-75
2024/03/31 01:13:10;;;;;;;10.70;2.25;;;;;;;17.92;39.92;98782.75;5052523;28;20029;-75
2024/03/31 01:15:36;;;;;;;12.77;1.90;;;;;;;17.89;39.97;98778.59;5052718;28;20507;-75
2024/03/31 01:18:02;;;;;;;11.43;3.00;;;;;;;17.89;40.20;98788.34;5036049;28;20029;-75
2024/03/31 01:20:27;;;;;;;13.63;5.55;;;;;;;17.87;40.22;98785.03;5052708;28;20029;-76
2024/03/31 01:22:53;;;;;;;16.00;7.65;;;;;;;17.83;40.17;98792.44;5035842;28;20083;-74
2024/03/31 01:25:18;;;;;;;24.35;9.80;;;;;;;17.81;40.23;98789.13;5069149;28;20032;-75
2024/03/31 01:27:44;;;;;;;24.63;10.35;;;;;;;17.76;40.17;98799.38;5052510;28;20028;-74
2024/03/31 01:30:09;;;;;;;22.60;10.48;;;;;;;17.71;40.20;98784.00;5069508;28;20033;-75
2024/03/31 01:32:35;;;;;;;20.65;10.05;;;;;;;17.74;40.29;98798.69;5054075;28;20025;-74
2024/03/31 01:35:00;;;;;;;21.55;9.75;;;;;;;17.72;40.51;98804.13;5035776;28;20032;-74
2024/03/31 01:37:26;;;;;;;16.02;8.25;;;;;;;17.68;40.52;98799.34;5053547;28;20040;-74
2024/03/31 01:39:51;;;;;;;17.83;8.77;;;;;;;17.65;40.52;98799.66;5052228;28;20029;-74
2024/03/31 01:42:17;;;;;;;22.17;8.18;;;;;;;17.64;40.65;98798.00;5035202;28;20059;-74
2024/03/31 01:44:42;;;;;;;22.85;8.07;;;;;;;17.61;40.72;98804.41;5052183;28;20025;-73
2024/03/31 01:47:08;;;;;;;20.65;7.00;;;;;;;17.57;40.67;98791.69;5035508;28;20040;-72
2024/03/31 01:49:33;;;;;;;20.20;6.53;;;;;;;17.59;40.93;98801.13;5052348;28;20035;-73
2024/03/31 01:51:59;;;;;;;17.92;6.80;;;;;;;17.57;40.97;98807.53;5051602;28;20045;-73
2024/03/31 01:54:24;;;;;;;16.88;6.55;;;;;;;17.55;41.00;98815.63;5035361;28;20427;-74
2024/03/31 01:56:50;;;;;;;21.25;8.32;;;;;;;17.49;41.02;98797.78;5053199;28;20029;-75
2024/03/31 01:59:15;;;;;;;24.08;10.20;;;;;;;17.49;41.09;98803.91;5051874;28;20404;-74
2024/03/31 02:01:40;;;;;;;22.05;11.10;;;;;;;17.44;41.27;98802.72;5051426;28;20036;-74
2024/03/31 02:04:06;;;;;;;34.05;14.02;;;;;;;17.43;41.04;98801.09;5051369;28;20053;-73
2024/03/31 02:06:31;;;;;;;28.17;14.48;;;;;;;17.44;41.31;98811.47;5068949;28;20036;-73
2024/03/31 02:08:57;;;;;;;30.45;12.85;;;;;;;17.39;41.30;98808.47;5053020;28;20267;-74
2024/03/31 02:11:22;;;;;;;23.58;12.02;;;;;;;17.32;41.33;98802.19;5051926;28;20025;-74
2024/03/31 02:13:48;;;;;;;23.55;12.68;;;;;;;17.34;41.35;98810.75;5051647;28;20041;-74
2024/03/31 02:16:14;;;;;;;24.92;11.43;;;;;;;17.33;41.45;98809.09;5068300;28;20037;-74
2024/03/31 02:18:40;;;;;;;21.33;10.30;;;;;;;17.31;41.37;98811.09;5051601;28;20029;-74
2024/03/31 02:21:05;;;;;;;22.48;9.77;;;;;;;17.31;41.58;98811.09;5068210;28;20039;-74
2024/03/31 02:23:31;;;;;;;21.10;9.15;;;;;;;17.30;41.56;98812.91;5052123;28;20033;-74
2024/03/31 02:25:56;;;;;;;17.52;8.07;;;;;;;17.26;41.61;98816.00;5051146;28;20485;-75
2024/03/31 02:28:21;;;;;;;20.38;7.45;;;;;;;17.27;41.38;98820.31;5051307;28;20032;-74
2024/03/31 02:30:47;;;;;;;19.42;7.65;;;;;;;17.21;41.39;98811.22;5068262;28;20040;-74
2024/03/31 02:33:12;;;;;;;22.30;6.30;;;;;;;17.24;41.59;98820.63;5068133;28;20033;-73
2024/03/31 02:35:38;;;;;;;13.48;5.53;;;;;;;17.22;41.58;98819.94;5050041;28;20037;-73
2024/03/31 02:38:04;;;;;;;16.80;5.13;;;;;;;17.18;41.66;98820.25;5067688;28;20050;-73
2024/03/31 02:40:29;;;;;;;16.58;5.05;;;;;;;17.19;41.73;98823.72;5051291;28;20116;-73
2024/03/31 02:42:54;;;;;;;14.02;4.63;;;;;;;17.17;41.87;98831.81;5067822;28;20072;-73
2024/03/31 02:45:20;;;;;;;12.10;4.70;;;;;;;17.11;41.85;98819.25;5068047;28;20033;-73
2024/03/31 02:47:45;;;;;;;13.38;4.15;;;;;;;17.07;41.76;98824.97;5067629;28;20039;-74
2024/03/31 02:50:11;;;;;;;15.68;4.10;;;;;;;17.06;41.78;98821.50;5067743;28;20021;-72
2024/03/31 02:52:36;;;;;;;12.15;3.50;;;;;;;17.10;41.94;98829.94;5051172;28;20127;-73
2024/03/31 02:55:02;;;;;;;12.48;2.88;;;;;;;17.08;42.03;98830.09;5050964;28;20040;-73
2024/03/31 02:57:28;;;;;;;14.80;3.50;;;;;;;17.06;42.05;98836.50;5034449;28;20119;-73
2024/03/31 02:59:53;;;;;;;13.45;3.10;;;;;;;17.03;42.13;98834.19;5034279;28;20017;-74
2024/03/31 03:02:19;;;;;;;10.00;3.58;;;;;;;16.99;41.95;98831.03;5050989;28;20110;-73
2024/03/31 03:04:44;;;;;;;14.38;2.90;;;;;;;17.02;42.11;98840.47;5050231;28;20480;-73
2024/03/31 03:07:09;;;;;;;10.80;2.80;;;;;;;16.98;42.15;98835.50;5050445;28;20041;-74
2024/03/31 03:09:35;;;;;;;10.95;2.70;;;;;;;16.95;42.19;98834.97;5050969;28;20029;-73
2024/03/31 03:12:00;;;;;;;11.75;2.72;;;;;;;16.97;42.15;98838.28;5034336;28;20067;-73
2024/03/31 03:14:26;;;;;;;12.82;2.70;;;;;;;16.93;42.16;98836.94;5034293;28;20040;-73
2024/03/31 03:16:51;;;;;;;12.38;2.38;;;;;;;16.90;42.40;98838.06;5050595;28;20484;-74
2024/03/31 03:19:17;;;;;;;11.02;2.55;;;;;;;16.91;42.41;98838.91;5050297;28;20033;-75
2024/03/31 03:21:42;;;;;;;8.75;2.30;;;;;;;16.84;42.39;98836.03;5066983;28;20048;-74
2024/03/31 03:24:08;;;;;;;10.85;2.20;;;;;;;16.88;42.48;98841.84;5050618;28;20103;-75
2024/03/31 03:26:33;;;;;;;12.55;2.30;;;;;;;16.81;42.31;98839.78;5051913;28;20029;-75
2024/03/31 03:28:59;;;;;;;15.45;2.97;;;;;;;16.78;42.63;98842.75;5050600;28;20028;-74
2024/03/31 03:31:24;;;;;;;11.75;2.25;;;;;;;16.77;42.65;98837.63;5067450;28;20404;-74
2024/03/31 03:33:50;;;;;;;11.10;2.30;;;;;;;16.74;42.58;98843.19;5050817;28;20032;-74
2024/03/31 03:36:15;;;;;;;16.73;2.47;;;;;;;16.74;42.87;98843.19;5050672;28;20041;-74
2024/03/31 03:38:41;;;;;;;10.30;2.53;;;;;;;16.70;42.78;98842.69;5050530;28;20028;-75
2024/03/31 03:41:06;;;;;;;14.57;2.40;;;;;;;16.70;42.66;98839.19;5050844;28;20163;-72
2024/03/31 03:43:35;;;;;;;9.80;2.22;;;;;;;16.72;42.82;98851.25;5050615;28;20041;-73
2024/03/31 03:46:02;;;;;;;;;;;;;;;16.72;42.66;98847.81;5051370;28;20032;-75
2024/03/31 03:48:28;;;;;;;9.02;2.33;;;;;;;16.69;42.76;98842.84;5070800;28;19912;-74
2024/03/31 03:50:53;;;;;;;11.60;2.40;;;;;;;16.66;42.74;98843.16;5071412;28;20029;-74
2024/03/31 03:53:19;;;;;;;14.25;2.30;;;;;;;16.68;42.72;98849.09;5050812;28;20085;-74
2024/03/31 03:55:45;;;;;;;13.20;2.35;;;;;;;16.67;42.68;98850.91;5051324;28;20465;-76
2024/03/31 03:58:10;;;;;;;10.57;1.85;;;;;;;16.61;42.80;98854.13;5051293;28;20106;-75
2024/03/31 04:00:40;;;;;;;7.95;2.00;;;;;;;16.61;42.84;98849.69;5051265;28;20041;-74
2024/03/31 04:03:05;;;;;;;16.10;2.30;;;;;;;16.62;42.79;98846.09;5051180;28;20030;-74
2024/03/31 04:05:31;;;;;;;16.58;2.95;;;;;;;16.70;42.77;98857.66;5035162;28;20029;-74
2024/03/31 04:07:56;;;;;;;9.50;2.10;;;;;;;16.70;42.68;98849.75;5034577;28;20513;-75
2024/03/31 04:10:22;;;;;;;10.15;2.70;;;;;;;16.96;42.18;98863.00;5034314;28;20132;-73
2024/03/31 04:12:48;;;;;;;14.52;5.50;;;;;;;17.34;41.59;98859.06;5035258;28;20512;-73
2024/03/31 04:15:14;;;;;;;16.95;6.38;;;;;;;17.77;40.69;98867.00;5033948;28;20512;-75
2024/03/31 04:17:39;;;;;;;18.27;7.55;;;;;;;18.27;40.03;98867.97;5017900;28;20061;-73
2024/03/31 04:20:05;;;;;;;24.38;8.07;;;;;;;18.52;39.65;98866.19;5050780;28;20025;-74
2024/03/31 04:22:31;;;;;;;19.63;6.78;;;;;;;18.75;46.23;98865.50;5051391;28;20481;-73
2024/03/31 04:24:57;;;;;;;13.10;6.03;;;;;;;19.36;43.75;98870.41;5039762;28;20041;-73
2024/03/31 04:27:22;;;;;;;13.07;4.45;;;;;;;20.08;50.91;98867.59;5051760;28;20033;-75
2024/03/31 04:29:48;;;;;;;15.57;4.45;;;;;;;20.43;45.71;98876.00;5033958;28;20072;-74
2024/03/31 04:32:16;;;;;;;19.48;4.28;;;;;;;21.37;42.33;98864.22;5050620;28;20069;-76
2024/03/31 04:34:42;;;;;;;9.18;3.83;;;;;;;22.06;39.44;98863.84;5034007;28;20091;-73
2024/03/31 04:37:07;;;;;;;13.45;3.35;;;;;;;22.71;36.97;98867.34;5050292;28;20025;-74
2024/03/31 04:39:35;;;;;;;7.68;3.38;;;;;;;23.37;35.38;98870.69;5050246;28;20466;-74
2024/03/31 04:42:01;;;;;;;14.80;3.60;;;;;;;24.23;33.34;98870.22;5035220;28;20055;-74
2024/03/31 04:44:27;;;;;;;9.93;3.78;;;;;;;25.00;31.60;98873.34;5050317;28;20033;-74
2024/03/31 04:46:53;;;;;;;14.55;3.10;;;;;;;25.86;30.25;98884.03;5033469;28;20429;-76
2024/03/31 04:49:18;;;;;;;10.52;3.10;;;;;;;26.22;29.28;98886.13;5065625;28;20103;-74
2024/03/31 04:51:44;;;;;;;17.90;3.47;;;;;;;26.44;30.25;98886.63;5050295;28;20029;-76
2024/03/31 04:54:09;;;;;;;21.58;3.83;;;;;;;26.76;29.12;98881.25;5035541;28;20057;-75
2024/03/31 04:56:35;;;;;;;24.13;3.33;;;;;;;26.84;28.42;98874.81;5050089;28;20029;-74
2024/03/31 04:59:00;;;;;;;16.15;3.05;;;;;;;27.23;27.96;98884.31;5032371;28;20114;-73
2024/03/31 05:01:26;;;;;;;17.58;2.67;;;;;;;27.56;27.13;98877.81;5053000;28;20025;-73
2024/03/31 05:03:51;;;;;;;14.00;2.97;;;;;;;27.82;26.41;98883.88;5053766;28;20037;-75
2024/03/31 05:06:17;;;;;;;13.20;2.70;;;;;;;28.21;25.94;98900.53;5053764;28;20079;-75
2024/03/31 05:08:42;;;;;;;28.05;3.15;;;;;;;28.62;25.62;98893.53;5070572;28;20025;-80
2024/03/31 05:11:08;;;;;;;17.13;2.58;;;;;;;28.64;23.79;98891.44;5054453;28;20033;-82
2024/03/31 05:13:33;;;;;;;13.82;3.10;;;;;;;28.32;23.33;98893.53;5037524;28;20033;-82
2024/03/31 05:15:59;;;;;;;15.73;2.92;;;;;;;28.04;23.33;98900.34;5054762;28;20500;-83
2024/03/31 05:18:25;;;;;;;12.70;3.00;;;;;;;27.95;23.59;98896.34;5053717;28;20036;-82
2024/03/31 05:20:57;;;;;;;21.02;2.88;;;;;;;27.83;23.95;98906.16;5055234;28;20451;-83
2024/03/31 05:23:23;;;;;;;18.08;3.30;;;;;;;27.97;23.72;98911.16;5078260;28;20029;-78
2024/03/31 05:25:50;;;;;;;14.18;3.33;;;;;;;28.42;23.34;98911.78;5057856;28;20037;-81
2024/03/31 05:28:16;;;;;;;15.63;3.85;;;;;;;28.36;22.98;98904.66;5053417;28;20093;-83
2024/03/31 05:30:41;;;;;;;19.58;4.57;;;;;;;28.49;22.66;98917.88;5052921;28;20037;-79
2024/03/31 05:33:07;;;;;;;25.50;4.40;;;;;;;29.12;26.73;98921.03;5056511;28;20037;-82
2024/03/31 05:35:32;;;;;;;27.75;4.55;;;;;;;29.57;24.62;98915.03;5058061;28;20506;-80
2024/03/31 05:37:58;;;;;;;23.90;4.47;;;;;;;29.89;24.39;98914.66;5036377;28;20048;-77
2024/03/31 05:40:23;;;;;;;37.05;3.97;;;;;;;30.30;24.07;98918.13;5052370;28;20024;-78
2024/03/31 05:42:49;;;;;;;55.42;11.80;;;;;;;30.19;24.01;98916.28;5053359;28;20123;-82
2024/03/31 05:45:14;;;;;;;80.38;19.52;;;;;;;30.29;23.08;98922.69;5053764;28;20040;-81
2024/03/31 05:47:43;;;;;;;69.90;16.25;;;;;;;30.12;23.35;98919.13;5037589;28;20045;-82
2024/03/31 05:50:08;;;;;;;52.97;17.63;;;;;;;30.12;23.39;98932.59;5052438;28;20135;-75
2024/03/31 05:52:34;;;;;;;36.15;16.70;;;;;;;30.28;22.66;98920.22;5051364;28;20110;-80
2024/03/31 05:54:59;;;;;;;37.38;11.50;;;;;;;29.84;22.66;98923.44;5069907;28;20093;-83
2024/03/31 05:57:25;;;;;;;55.38;30.35;;;;;;;29.62;22.42;98922.41;5051558;28;20672;-85
2024/03/31 05:59:50;;;;;;;49.17;28.25;;;;;;;29.87;22.42;98925.66;5069295;28;20048;-82
2024/03/31 06:02:16;;;;;;;52.67;33.03;;;;;;;30.19;22.69;98925.19;5069005;28;20507;-83
2024/03/31 06:04:41;;;;;;;23.83;8.77;;;;;;;30.38;20.59;98925.84;5055938;28;20032;-89
2024/03/31 06:07:07;;;;;;;42.42;18.02;;;;;;;30.36;23.14;98925.22;5023428;28;20044;-88
2024/03/31 06:09:33;;;;;;;40.28;19.75;;;;;;;30.40;22.64;98923.72;5051902;28;20498;-81
2024/03/31 06:11:58;;;;;;;42.55;16.88;;;;;;;30.47;21.75;98923.56;5053323;28;20032;-87
2024/03/31 06:14:24;;;;;;;23.15;8.48;;;;;;;30.40;20.96;98926.41;5055289;28;20055;-82
2024/03/31 06:16:49;;;;;;;29.60;8.45;;;;;;;30.48;21.85;98938.66;5035452;28;20040;-80
2024/03/31 06:19:15;;;;;;;34.33;6.55;;;;;;;30.21;22.09;98941.09;5016713;28;20091;-75
2024/03/31 06:21:40;;;;;;;20.83;6.35;;;;;;;29.76;23.36;98943.44;5052594;28;20086;-76
2024/03/31 06:24:06;;;;;;;28.48;7.47;;;;;;;29.87;23.01;98947.19;5018311;28;20412;-73
2024/03/31 06:26:31;;;;;;;17.17;4.45;;;;;;;29.50;21.50;98946.63;5050296;28;20049;-77
2024/03/31 06:28:57;;;;;;;24.42;5.70;;;;;;;29.54;22.38;98939.72;5052459;28;20108;-79
2024/03/31 06:31:22;;;;;;;25.20;5.90;;;;;;;29.51;22.05;98940.19;5018137;28;20063;-77
2024/03/31 06:33:48;;;;;;;23.23;6.65;;;;;;;29.61;22.56;98953.88;5035060;28;20063;-76
2024/03/31 06:36:13;;;;;;;20.98;5.55;;;;;;;28.92;23.03;98950.91;5034610;28;20546;-77
2024/03/31 06:38:39;;;;;;;22.20;6.82;;;;;;;29.00;22.80;98955.94;5051425;28;20468;-78
2024/03/31 06:41:04;;;;;;;22.20;4.55;;;;;;;29.06;22.38;98957.72;5050318;28;20036;-77
2024/03/31 06:43:30;;;;;;;20.58;5.40;;;;;;;29.08;22.37;98954.78;5034610;28;20021;-76
2024/03/31 06:45:56;;;;;;;35.33;4.53;;;;;;;28.55;23.24;98956.44;5050561;28;20120;-78
2024/03/31 06:48:22;;;;;;;21.40;4.53;;;;;;;28.47;23.47;98957.56;5035045;28;20404;-75
2024/03/31 06:50:47;;;;;;;21.52;5.55;;;;;;;28.38;22.76;98957.06;5051298;28;20032;-77
2024/03/31 06:53:12;;;;;;;21.88;5.20;;;;;;;28.31;23.18;98949.09;5050085;28;20052;-76
2024/03/31 06:55:42;;;;;;;19.33;5.47;;;;;;;28.51;24.91;98959.56;5050734;28;20028;-79
2024/03/31 06:58:07;;;;;;;22.40;7.97;;;;;;;28.78;24.32;98953.84;5066784;28;20040;-78
2024/03/31 07:00:32;;;;;;;16.27;4.50;;;;;;;29.03;23.21;98948.25;5050703;28;20025;-79
2024/03/31 07:02:58;;;;;;;20.05;4.25;;;;;;;29.30;23.18;98953.19;5067394;28;20025;-75
2024/03/31 07:05:24;;;;;;;20.25;4.53;;;;;;;29.17;22.10;98948.81;5067199;28;20032;-75
2024/03/31 07:07:49;;;;;;;24.85;4.45;;;;;;;29.36;22.18;98949.56;5050572;28;20506;-74
2024/03/31 07:10:15;;;;;;;25.13;8.52;;;;;;;29.63;22.71;98951.75;5034260;28;20033;-75
2024/03/31 07:12:41;;;;;;;23.23;4.38;;;;;;;29.91;21.54;98952.91;5051123;28;20123;-76
2024/03/31 07:15:06;;;;;;;27.10;12.88;;;;;;;30.03;22.01;98956.38;5033918;28;20056;-77
2024/03/31 07:17:34;;;;;;;21.80;8.40;;;;;;;29.90;21.21;98952.09;5050565;28;20475;-77
2024/03/31 07:19:59;;;;;;;;;;;;;;;29.84;21.63;98949.53;5051322;28;20572;-75
2024/03/31 07:22:25;;;;;;;13.50;4.60;;;;;;;30.13;20.76;98953.88;5050009;28;19999;-76
2024/03/31 07:24:50;;;;;;;24.88;5.43;;;;;;;30.42;20.94;98964.66;5050326;28;20408;-76
2024/03/31 07:27:16;;;;;;;16.50;4.82;;;;;;;30.40;21.81;98949.84;5033764;28;20033;-77
2024/03/31 07:29:42;;;;;;;25.48;4.45;;;;;;;30.60;22.25;98957.44;5050571;28;20029;-76
2024/03/31 07:32:07;;;;;;;16.10;4.40;;;;;;;30.63;23.32;98951.56;5067299;28;20111;-73
2024/03/31 07:34:33;;;;;;;17.65;4.82;;;;;;;30.61;23.28;98951.00;5050489;28;20450;-75
2024/03/31 07:36:58;;;;;;;15.27;4.38;;;;;;;30.66;20.91;98943.84;5067112;28;20037;-77
2024/03/31 07:39:24;;;;;;;17.35;4.38;;;;;;;30.71;20.55;98942.28;5067407;28;20105;-76
2024/03/31 07:41:49;;;;;;;16.85;5.78;;;;;;;30.83;21.03;98938.44;5049733;28;20080;-76
2024/03/31 07:44:16;;;;;;;25.45;4.10;;;;;;;30.79;22.87;98950.78;5049622;28;20100;-75
2024/03/31 07:46:41;;;;;;;17.40;4.30;;;;;;;30.79;21.83;98952.63;5033398;28;20106;-77
2024/03/31 07:49:07;;;;;;;15.88;4.40;;;;;;;30.85;21.12;98946.28;5030703;28;20075;-81
2024/03/31 07:51:32;;;;;;;17.55;4.13;;;;;;;30.40;21.66;98947.13;5049302;28;20057;-76
2024/03/31 07:53:58;;;;;;;18.60;4.00;;;;;;;30.16;21.70;98947.22;5033321;28;20092;-79
2024/03/31 07:56:23;;;;;;;21.42;4.18;;;;;;;29.75;21.95;98947.19;5065590;28;20060;-76
2024/03/31 07:58:49;;;;;;;18.88;4.68;;;;;;;30.04;22.17;98949.13;5049340;28;20044;-80
2024/03/31 08:01:14;;;;;;;21.23;4.80;;;;;;;30.13;22.83;98948.50;5049269;28;20055;-76
2024/03/31 08:03:39;;;;;;;17.88;4.30;;;;;;;30.10;22.22;98958.94;5033382;28;20079;-75
2024/03/31 08:06:05;;;;;;;22.45;3.35;;;;;;;30.35;21.48;98953.22;5049407;28;20021;-79
2024/03/31 08:08:30;;;;;;;20.05;4.18;;;;;;;30.28;22.69;98955.22;5031468;28;20111;-73
2024/03/31 08:10:56;;;;;;;21.00;3.58;;;;;;;30.55;23.28;98951.97;5050383;28;20036;-76
2024/03/31 08:13:21;;;;;;;17.27;3.45;;;;;;;30.55;21.92;98947.38;5031877;28;20053;-74
2024/03/31 08:15:47;;;;;;;23.88;4.03;;;;;;;30.75;25.03;98946.94;5066055;28;20037;-78
2024/03/31 08:18:13;;;;;;;23.58;3.40;;;;;;;30.87;24.24;98952.25;5033068;28;20037;-77
2024/03/31 08:20:38;;;;;;;19.13;3.45;;;;;;;30.64;24.46;98950.50;5032974;28;20492;-78
2024/03/31 08:23:04;;;;;;;20.10;4.50;;;;;;;30.24;23.07;98951.41;5049241;28;20024;-73
2024/03/31 08:25:29;;;;;;;12.35;3.20;;;;;;;29.95;22.16;98954.03;5048279;28;20021;-76
2024/03/31 08:27:55;;;;;;;17.45;5.10;;;;;;;29.77;22.37;98942.38;5049545;28;20412;-74
2024/03/31 08:30:20;;;;;;;23.75;3.90;;;;;;;30.00;22.46;98945.25;5049161;28;20037;-79
2024/03/31 08:32:46;;;;;;;19.50;3.42;;;;;;;30.20;22.08;98950.22;5065473;28;20124;-79
2024/03/31 08:35:11;;;;;;;21.65;3.40;;;;;;;30.02;23.55;98951.25;5053209;28;20029;-81
2024/03/31 08:37:37;;;;;;;19.35;3.65;;;;;;;29.24;22.58;98951.44;5052867;28;20040;-85
2024/03/31 08:40:03;;;;;;;13.50;3.08;;;;;;;29.30;22.51;98941.63;5051413;28;20676;-84
2024/03/31 08:42:48;;;;;;;12.32;3.08;;;;;;;29.37;22.77;98951.19;5069236;28;20488;-80
2024/03/31 08:45:13;;;;;;;21.33;3.90;;;;;;;29.80;22.30;98946.50;5049792;28;20719;-81
2024/03/31 08:47:41;;;;;;;14.80;2.70;;;;;;;29.66;22.30;98942.41;5052331;28;20036;-82
2024/03/31 08:50:08;;;;;;;17.15;3.38;;;;;;;29.79;22.38;98942.16;5050512;28;20033;-81
2024/03/31 08:52:34;;;;;;;14.20;3.67;;;;;;;29.68;23.07;98942.97;5052341;28;20049;-81
2024/03/31 08:54:59;;;;;;;15.10;2.95;;;;;;;29.93;22.69;98946.22;5068654;28;20032;-79
2024/03/31 08:57:25;;;;;;;15.27;2.70;;;;;;;30.44;22.41;98945.56;5052998;28;20029;-78
2024/03/31 08:59:50;;;;;;;11.88;3.08;;;;;;;30.45;22.20;98948.03;5019399;28;20025;-69
2024/03/31 09:02:23;;;;;;;18.80;2.85;;;;;;;30.11;22.67;98941.75;5053259;28;20025;-70
2024/03/31 09:04:49;;;;;;;21.80;3.45;;;;;;;30.40;23.44;98941.75;5035628;28;20565;-75
2024/03/31 09:07:14;;;;;;;15.82;3.33;;;;;;;30.79;25.21;98947.25;5018729;28;20032;-77
2024/03/31 09:09:41;;;;;;;14.82;2.85;;;;;;;30.93;24.14;98953.13;5035920;28;20120;-74
2024/03/31 09:12:07;;;;;;;18.85;3.50;;;;;;;31.05;23.41;98939.63;5019765;28;20047;-71
2024/03/31 09:14:33;;;;;;;22.93;3.80;;;;;;;31.07;23.98;98941.00;5051252;28;20036;-70
2024/03/31 09:16:59;;;;;;;17.95;3.75;;;;;;;31.06;22.60;98938.53;5051490;28;20322;-75
2024/03/31 09:19:24;;;;;;;16.13;3.35;;;;;;;31.42;22.47;98926.38;5018343;28;20028;-71
2024/03/31 09:21:50;;;;;;;18.52;3.40;;;;;;;31.56;23.17;98924.19;5052137;28;20086;-71
2024/03/31 09:24:16;;;;;;;14.77;3.33;;;;;;;31.76;23.16;98931.72;5052546;28;20409;-72
2024/03/31 09:26:42;;;;;;;14.32;2.97;;;;;;;31.81;23.05;98923.69;5032933;28;20024;-71
2024/03/31 09:29:08;;;;;;;17.70;3.15;;;;;;;31.85;21.98;98927.50;5033952;28;20048;-71
2024/03/31 09:31:34;;;;;;;16.52;2.70;;;;;;;31.95;22.98;98926.81;5050994;28;20056;-73
2024/03/31 09:33:59;;;;;;;15.07;2.92;;;;;;;32.02;23.01;98926.63;5051755;28;20467;-71
2024/03/31 09:36:25;;;;;;;22.23;3.47;;;;;;;32.05;24.33;98921.50;5050765;28;20033;-70
2024/03/31 09:38:50;;;;;;;13.52;2.95;;;;;;;32.23;24.45;98931.19;5067634;28;20519;-72
2024/03/31 09:41:17;;;;;;;20.85;3.30;;;;;;;32.07;23.61;98907.75;5051217;28;20404;-71
2024/03/31 09:43:43;;;;;;;14.40;3.30;;;;;;;32.21;23.63;98925.25;5050094;28;20033;-71
2024/03/31 09:46:08;;;;;;;19.13;3.33;;;;;;;32.33;23.48;98918.88;5049906;28;20419;-72
2024/03/31 09:48:35;;;;;;;11.15;2.90;;;;;;;31.99;22.66;98917.16;5033182;28;20033;-70
2024/03/31 09:51:03;;;;;;;13.07;3.13;;;;;;;32.07;22.22;98905.06;5050857;28;20043;-72
2024/03/31 09:53:29;;;;;;;14.27;3.58;;;;;;;32.01;22.06;98903.41;5047661;28;20423;-72
2024/03/31 09:56:01;;;;;;;12.15;2.83;;;;;;;31.60;23.24;98914.53;5052283;28;20492;-73
2024/03/31 09:58:26;;;;;;;11.75;2.80;;;;;;;31.73;23.62;98913.34;5050879;28;20082;-75
2024/03/31 10:00:52;;;;;;;17.60;3.45;;;;;;;31.71;23.20;98905.50;5050697;28;20029;-72
2024/03/31 10:03:38;;;;;;;14.18;3.45;;;;;;;31.74;23.08;98909.56;5066924;28;20122;-73
2024/03/31 10:06:04;;;;;;;18.13;3.10;;;;;;;31.53;23.31;98906.63;5050938;28;20025;-73
2024/03/31 10:08:30;;;;;;;10.00;2.70;;;;;;;31.69;24.39;98906.78;5066936;28;20116;-76
2024/03/31 10:10:58;;;;;;;10.10;2.97;;;;;;;31.66;23.11;98904.59;5050693;28;20484;-72
2024/03/31 10:13:27;;;;;;;10.05;2.60;;;;;;;31.63;24.02;98905.94;5065738;28;20136;-74
2024/03/31 10:15:54;;;;;;;13.40;2.80;;;;;;;31.56;24.03;98898.03;5066111;28;20071;-72
2024/03/31 10:18:20;;;;;;;16.65;2.78;;;;;;;31.42;23.63;98901.31;5051453;28;20479;-71
2024/03/31 10:20:45;;;;;;;13.85;2.75;;;;;;;31.28;24.47;98895.44;5051443;28;20063;-73
2024/03/31 10:23:12;;;;;;;12.02;2.92;;;;;;;31.20;23.42;98892.13;5051500;28;20063;-74
2024/03/31 10:25:37;;;;;;;13.50;3.83;;;;;;;31.27;24.97;98889.25;5033988;28;20033;-74
2024/03/31 10:28:03;;;;;;;14.25;2.97;;;;;;;31.19;23.45;98893.19;5068020;28;20378;-76
2024/03/31 10:30:28;;;;;;;12.40;3.03;;;;;;;30.84;22.97;98893.47;5050693;28;20037;-75
2024/03/31 10:32:54;;;;;;;13.52;3.03;;;;;;;30.73;23.72;98894.38;5051353;28;20504;-77
2024/03/31 10:35:20;;;;;;;15.90;2.92;;;;;;;30.63;22.95;98890.44;5051889;28;20048;-77
2024/03/31 10:37:45;;;;;;;15.15;2.60;;;;;;;30.39;23.55;98888.94;5052173;28;20024;-71
2024/03/31 10:40:12;;;;;;;16.55;4.03;;;;;;;30.45;25.95;98880.69;5067296;28;20036;-73
2024/03/31 10:42:37;;;;;;;16.90;3.08;;;;;;;30.35;24.21;98882.38;5051073;28;20032;-73
2024/03/31 10:45:04;;;;;;;15.60;3.20;;;;;;;30.34;26.22;98875.38;5066002;28;20396;-75
2024/03/31 10:47:29;;;;;;;13.82;2.55;;;;;;;30.27;24.52;98878.22;5051528;28;20032;-84
2024/03/31 10:49:58;;;;;;;21.75;3.25;;;;;;;30.08;25.31;98877.63;5051223;28;20044;-78
2024/03/31 10:52:26;;;;;;;11.25;2.28;;;;;;;29.93;24.35;98867.38;5067065;28;20049;-78
2024/03/31 10:54:52;;;;;;;;;;;;;;;29.84;23.97;98868.81;5052386;28;20032;-77
2024/03/31 10:57:17;;;;;;;6.75;2.08;;;;;;;29.71;23.85;98870.69;5050145;28;19916;-75
2024/03/31 10:59:43;;;;;;;9.05;2.60;;;;;;;29.82;26.05;98874.41;5050438;28;20029;-72
2024/03/31 11:02:21;;;;;;;18.30;2.50;;;;;;;29.82;25.44;98869.03;5051801;28;20037;-71
2024/03/31 11:05:05;;;;;;;;;;;;;;;29.69;23.55;98863.91;5051627;28;20035;-79
2024/03/31 11:07:32;;;;;;;13.95;2.15;;;;;;;29.36;23.35;98860.03;5051460;28;19908;-78
2024/03/31 11:09:57;;;;;;;9.75;2.10;;;;;;;29.41;23.39;98855.59;5051013;28;20029;-81
2024/03/31 11:12:23;;;;;;;11.52;2.22;;;;;;;29.49;22.92;98857.06;5067636;28;20020;-84
2024/03/31 11:14:51;;;;;;;10.85;2.28;;;;;;;29.35;22.19;98848.47;5067477;28;20037;-81
2024/03/31 11:17:16;;;;;;;9.25;2.10;;;;;;;29.27;23.10;98845.31;5035381;28;20493;-90
2024/03/31 11:19:43;;;;;;;11.30;2.05;;;;;;;29.46;22.69;98837.91;5051099;28;20119;-85